Time;durP1;ratioP1;P1;durP2;ratioP2;P2;SDS_P1;SDS_P2;PMS_P1;PMS_P2;Temp;Humidity;BMP_temperature;BMP_pressure;BME280_temperature;BME280_humidity;BME280_pressure;Samples;Min_cycle;Max_cycle;Signal;HPM_P1;HPM_P2
2024/04/13 00:01:34;;;;;;;6.10;3.88;;;17.50;99.90;;;;;;4483023;26;20015;-66
2024/04/13 00:03:34;;;;;;;5.43;3.70;;;17.50;99.90;;;;;;4505578;26;20011;-66
2024/04/13 00:05:35;;;;;;;4.80;3.20;;;17.40;99.90;;;;;;4491363;26;20015;-66
2024/04/13 00:07:36;;;;;;;4.82;3.35;;;17.40;99.90;;;;;;4507720;26;20006;-66
2024/04/13 00:09:37;;;;;;;6.32;3.47;;;17.40;99.90;;;;;;4495275;26;20083;-67
2024/04/13 00:11:38;;;;;;;6.50;4.00;;;17.40;99.90;;;;;;4502488;26;20084;-66
2024/04/13 00:13:39;;;;;;;5.47;3.40;;;17.30;99.90;;;;;;4468326;26;20003;-66
2024/04/13 00:15:39;;;;;;;5.90;3.28;;;17.30;99.90;;;;;;4447756;26;20020;-65
2024/04/13 00:17:40;;;;;;;5.68;3.30;;;17.30;99.90;;;;;;4505348;26;20011;-65
2024/04/13 00:19:40;;;;;;;7.07;3.88;;;17.30;99.90;;;;;;4485260;26;20027;-66
2024/04/13 00:21:42;;;;;;;6.97;3.70;;;17.30;99.90;;;;;;4480951;26;20444;-66
2024/04/13 00:23:42;;;;;;;5.53;3.40;;;17.30;99.90;;;;;;4480062;26;20026;-65
2024/04/13 00:25:44;;;;;;;5.05;3.50;;;17.30;99.90;;;;;;4482903;26;20004;-65
2024/04/13 00:27:45;;;;;;;5.50;3.22;;;17.30;99.90;;;;;;4478136;26;20016;-65
2024/04/13 00:29:45;;;;;;;6.40;3.75;;;17.20;99.90;;;;;;4487735;26;20022;-65
2024/04/13 00:31:46;;;;;;;4.57;3.13;;;17.20;99.90;;;;;;4482108;26;20079;-66
2024/04/13 00:33:47;;;;;;;7.07;3.83;;;17.20;99.90;;;;;;4480400;26;20018;-66
2024/04/13 00:35:50;;;;;;;5.90;3.80;;;17.20;99.90;;;;;;4494447;26;20383;-66
2024/04/13 00:37:51;;;;;;;5.35;3.28;;;17.20;99.90;;;;;;4491901;26;20007;-65
2024/04/13 00:39:52;;;;;;;6.30;3.33;;;17.20;99.90;;;;;;4489030;26;20556;-66
2024/04/13 00:41:54;;;;;;;8.07;4.07;;;17.20;99.90;;;;;;4487336;26;20010;-65
2024/04/13 00:43:55;;;;;;;6.32;4.28;;;17.20;99.90;;;;;;4481257;26;20022;-65
2024/04/13 00:45:55;;;;;;;7.03;3.90;;;17.10;99.90;;;;;;4485914;26;20007;-65
2024/04/13 00:48:00;;;;;;;6.07;3.53;;;17.10;99.90;;;;;;4482236;26;20021;-65
2024/04/13 00:50:11;;;;;;;7.63;4.10;;;17.10;99.90;;;;;;4502757;26;20003;-65
2024/04/13 00:52:13;;;;;;;5.57;3.90;;;17.10;99.90;;;;;;4509482;26;20015;-66
2024/04/13 00:54:16;;;;;;;6.80;3.90;;;17.00;99.90;;;;;;4510650;26;20003;-66
2024/04/13 00:56:18;;;;;;;5.97;3.67;;;17.00;99.90;;;;;;4509576;26;20021;-66
2024/04/13 00:58:26;;;;;;;6.47;3.78;;;17.00;99.90;;;;;;4507210;26;20003;-65
2024/04/13 01:00:26;;;;;;;6.80;3.60;;;17.10;99.90;;;;;;4497225;26;20452;-65
2024/04/13 01:02:28;;;;;;;7.68;3.90;;;17.00;99.90;;;;;;4493877;26;20026;-65
2024/04/13 01:04:29;;;;;;;6.05;3.80;;;17.00;99.90;;;;;;4489683;26;20018;-65
2024/04/13 01:06:32;;;;;;;5.10;3.50;;;17.00;99.90;;;;;;4480117;26;20007;-66
2024/04/13 01:08:34;;;;;;;7.93;3.50;;;17.00;99.90;;;;;;4493234;26;20026;-68
2024/04/13 01:10:35;;;;;;;6.88;3.85;;;17.00;99.90;;;;;;4493453;26;20133;-67
2024/04/13 01:12:36;;;;;;;8.95;4.05;;;17.00;99.90;;;;;;4480978;26;20019;-68
2024/04/13 01:14:36;;;;;;;7.00;3.70;;;17.00;99.90;;;;;;4483031;26;20015;-68
2024/04/13 01:16:38;;;;;;;6.45;4.15;;;17.00;99.90;;;;;;4488929;26;20089;-68
2024/04/13 01:18:39;;;;;;;4.88;3.53;;;16.90;99.90;;;;;;4479624;26;19999;-68
2024/04/13 01:20:41;;;;;;;6.40;3.35;;;16.90;99.90;;;;;;4478618;26;20096;-68
2024/04/13 01:22:47;;;;;;;6.93;3.83;;;16.90;99.90;;;;;;4487223;26;20021;-68
2024/04/13 01:24:49;;;;;;;5.80;3.03;;;16.90;99.90;;;;;;4483380;26;20236;-67
2024/04/13 01:26:49;;;;;;;5.05;3.63;;;16.90;99.90;;;;;;4487969;26;20018;-68
2024/04/13 01:28:50;;;;;;;6.78;3.97;;;16.90;99.90;;;;;;4482975;26;20108;-68
2024/04/13 01:30:52;;;;;;;6.18;3.63;;;16.90;99.90;;;;;;4485917;26;20011;-68
2024/04/13 01:32:52;;;;;;;5.43;3.67;;;16.90;99.90;;;;;;4486114;26;20007;-68
2024/04/13 01:34:53;;;;;;;6.85;3.50;;;16.90;99.90;;;;;;4485293;26;20018;-68
2024/04/13 01:36:54;;;;;;;6.68;3.53;;;16.90;99.90;;;;;;4478604;26;20344;-68
2024/04/13 01:38:55;;;;;;;5.20;3.25;;;16.90;99.90;;;;;;4487548;26;20014;-68
2024/04/13 01:40:55;;;;;;;5.13;3.40;;;16.90;99.90;;;;;;4488714;26;20021;-68
2024/04/13 01:42:56;;;;;;;7.90;3.78;;;16.90;99.90;;;;;;4480710;26;20347;-68
2024/04/13 01:44:57;;;;;;;7.03;4.20;;;16.80;99.90;;;;;;4481494;26;20011;-68
2024/04/13 01:46:59;;;;;;;6.55;3.78;;;16.80;99.90;;;;;;4481169;26;20464;-68
2024/04/13 01:49:00;;;;;;;7.40;3.50;;;16.80;99.90;;;;;;4487241;26;20015;-68
2024/04/13 01:51:00;;;;;;;6.55;3.78;;;16.70;99.90;;;;;;4485266;26;20504;-68
2024/04/13 01:53:01;;;;;;;7.45;3.90;;;16.80;99.90;;;;;;4479920;26;20081;-68
2024/04/13 01:55:02;;;;;;;5.20;3.05;;;16.80;99.90;;;;;;4482370;26;20035;-68
2024/04/13 01:57:03;;;;;;;4.53;3.05;;;16.70;99.90;;;;;;4482030;26;20022;-68
2024/04/13 01:59:05;;;;;;;8.52;4.15;;;16.70;99.90;;;;;;4487376;26;20356;-68
2024/04/13 02:01:06;;;;;;;6.97;3.85;;;16.70;99.90;;;;;;4486885;26;20476;-68
2024/04/13 02:03:06;;;;;;;5.55;3.67;;;16.70;99.90;;;;;;4488039;26;20141;-68
2024/04/13 02:05:07;;;;;;;4.55;3.20;;;16.70;99.90;;;;;;4497158;26;20015;-68
2024/04/13 02:07:08;;;;;;;6.78;3.47;;;16.70;99.90;;;;;;4489482;26;20014;-68
2024/04/13 02:09:13;;;;;;;4.85;3.10;;;16.70;99.90;;;;;;4487254;26;20422;-68
2024/04/13 02:11:13;;;;;;;7.88;4.03;;;16.60;99.90;;;;;;4495460;26;20085;-67
2024/04/13 02:13:14;;;;;;;6.28;4.07;;;16.60;99.90;;;;;;4491377;26;20085;-68
2024/04/13 02:15:14;;;;;;;7.30;3.67;;;16.60;99.90;;;;;;4493276;26;20012;-67
2024/04/13 02:17:16;;;;;;;9.13;3.83;;;16.60;99.90;;;;;;4496820;26;20359;-67
2024/04/13 02:19:17;;;;;;;6.28;4.00;;;16.60;99.90;;;;;;4494864;26;20003;-65
2024/04/13 02:21:18;;;;;;;6.00;3.83;;;16.60;99.90;;;;;;4494608;26;20332;-65
2024/04/13 02:23:18;;;;;;;5.35;3.67;;;16.50;99.90;;;;;;4495462;26;20007;-65
2024/04/13 02:25:19;;;;;;;9.07;3.70;;;16.50;99.90;;;;;;4484180;26;19999;-65
2024/04/13 02:27:20;;;;;;;6.22;3.40;;;16.50;99.90;;;;;;4502525;26;20015;-64
2024/04/13 02:29:21;;;;;;;6.75;3.60;;;16.50;99.90;;;;;;4489022;26;20003;-65
2024/04/13 02:31:22;;;;;;;8.23;4.27;;;16.50;99.90;;;;;;4490299;26;20484;-65
2024/04/13 02:33:22;;;;;;;6.70;3.97;;;16.50;99.90;;;;;;4481853;26;19996;-65
2024/04/13 02:35:24;;;;;;;7.43;3.70;;;16.40;99.90;;;;;;4495788;26;20000;-65
2024/04/13 02:37:24;;;;;;;7.72;4.20;;;16.40;99.90;;;;;;4494721;26;19999;-65
2024/04/13 02:39:26;;;;;;;8.73;4.55;;;16.40;99.90;;;;;;4486108;26;20021;-64
2024/04/13 02:41:27;;;;;;;8.10;4.13;;;16.40;99.90;;;;;;4477705;26;20003;-65
2024/04/13 02:43:31;;;;;;;7.13;4.05;;;16.30;99.90;;;;;;4498882;26;20448;-65
2024/04/13 02:45:35;;;;;;;5.43;3.50;;;16.30;99.90;;;;;;4477382;26;20019;-64
2024/04/13 02:47:36;;;;;;;7.38;3.83;;;16.30;99.90;;;;;;4491473;26;20010;-65
2024/04/13 02:49:36;;;;;;;5.82;3.47;;;16.30;99.90;;;;;;4493182;26;20013;-65
2024/04/13 02:51:38;;;;;;;7.18;3.90;;;16.30;99.90;;;;;;4487501;26;20011;-64
2024/04/13 02:53:38;;;;;;;4.50;3.50;;;16.30;99.90;;;;;;4478608;26;20003;-65
2024/04/13 02:55:39;;;;;;;6.80;4.25;;;16.30;99.90;;;;;;4477728;26;20000;-64
2024/04/13 02:57:40;;;;;;;6.82;3.95;;;16.30;99.90;;;;;;4490688;26;20011;-65
2024/04/13 02:59:42;;;;;;;6.43;3.50;;;16.30;99.90;;;;;;4484153;26;20000;-65
2024/04/13 03:01:43;;;;;;;9.33;4.13;;;16.40;99.90;;;;;;4486364;26;20008;-65
2024/04/13 03:03:44;;;;;;;5.28;3.65;;;16.30;99.90;;;;;;4479673;26;20217;-65
2024/04/13 03:05:46;;;;;;;7.00;3.72;;;16.30;99.90;;;;;;4477762;26;20003;-65
2024/04/13 03:07:46;;;;;;;4.40;3.50;;;16.30;99.90;;;;;;4474697;26;20056;-65
2024/04/13 03:09:48;;;;;;;6.70;3.65;;;16.30;99.90;;;;;;4478591;26;20015;-65
2024/04/13 03:11:49;;;;;;;4.30;3.15;;;16.30;99.90;;;;;;4492052;26;20011;-65
2024/04/13 03:13:50;;;;;;;4.35;3.25;;;16.30;99.90;;;;;;4482039;26;20509;-65
2024/04/13 03:16:04;;;;;;;4.70;3.17;;;16.30;99.90;;;;;;4495771;26;20006;-65
2024/04/13 03:18:05;;;;;;;6.55;2.97;;;16.30;99.90;;;;;;4490823;26;20463;-65
2024/04/13 03:20:06;;;;;;;6.93;3.22;;;16.30;99.90;;;;;;4494432;26;20010;-65
2024/04/13 03:22:07;;;;;;;6.50;3.17;;;16.30;99.90;;;;;;4489999;26;20015;-65
2024/04/13 03:24:08;;;;;;;4.10;3.28;;;16.30;99.90;;;;;;4480527;26;20106;-65
2024/04/13 03:26:09;;;;;;;4.55;3.22;;;16.30;99.90;;;;;;4476648;26;20003;-65
2024/04/13 03:28:09;;;;;;;7.22;3.58;;;16.20;99.90;;;;;;4489976;26;20018;-68
2024/04/13 03:30:10;;;;;;;4.85;3.10;;;16.20;99.90;;;;;;4489811;26;20007;-68
2024/04/13 03:32:10;;;;;;;6.22;3.25;;;16.20;99.90;;;;;;4493916;26;20015;-68
2024/04/13 03:34:11;;;;;;;4.70;3.13;;;16.20;99.90;;;;;;4479807;26;20007;-68
2024/04/13 03:36:12;;;;;;;5.40;3.72;;;16.20;99.90;;;;;;4496648;26;20065;-68
2024/04/13 03:38:13;;;;;;;4.13;3.33;;;16.20;99.90;;;;;;4482455;26;20018;-68
2024/04/13 03:40:14;;;;;;;6.47;3.67;;;16.20;99.90;;;;;;4481266;26;20054;-68
2024/04/13 03:42:14;;;;;;;6.57;3.72;;;16.20;99.90;;;;;;4466657;26;20019;-67
2024/04/13 03:44:15;;;;;;;5.03;3.53;;;16.20;99.90;;;;;;4491914;26;20018;-68
2024/04/13 03:46:16;;;;;;;6.78;3.58;;;16.10;99.90;;;;;;4484774;26;20003;-68
2024/04/13 03:48:17;;;;;;;6.07;3.80;;;16.10;99.90;;;;;;4508039;26;20006;-68
2024/04/13 03:50:18;;;;;;;6.70;3.88;;;16.10;99.90;;;;;;4480202;26;20007;-68
2024/04/13 03:52:18;;;;;;;4.78;3.33;;;16.10;99.90;;;;;;4484138;26;20116;-68
2024/04/13 03:54:19;;;;;;;4.22;3.15;;;16.10;99.90;;;;;;4477005;26;20003;-68
2024/04/13 03:56:19;;;;;;;5.82;3.25;;;16.10;99.90;;;;;;4487858;26;20007;-68
2024/04/13 03:58:20;;;;;;;7.75;4.00;;;16.00;99.90;;;;;;4489117;26;20463;-67
2024/04/13 04:00:21;;;;;;;5.20;3.60;;;16.00;99.90;;;;;;4491877;26;20112;-68
2024/04/13 04:02:21;;;;;;;6.72;4.35;;;16.00;99.90;;;;;;4480494;26;20480;-68
2024/04/13 04:04:22;;;;;;;4.72;3.60;;;16.00;99.90;;;;;;4489666;26;20006;-68
2024/04/13 04:06:22;;;;;;;10.50;3.85;;;15.90;99.90;;;;;;4480992;26;20068;-68
2024/04/13 04:08:23;;;;;;;6.70;3.50;;;15.90;99.90;;;;;;4496981;26;20007;-68
2024/04/13 04:10:24;;;;;;;6.53;3.72;;;15.80;99.90;;;;;;4497074;26;20351;-68
2024/04/13 04:12:25;;;;;;;6.40;3.78;;;15.80;99.90;;;;;;4495484;26;20018;-68
2024/04/13 04:14:26;;;;;;;4.75;3.55;;;15.80;99.90;;;;;;4488021;26;20006;-68
2024/04/13 04:16:27;;;;;;;4.93;3.88;;;15.80;99.90;;;;;;4499342;26;20467;-68
2024/04/13 04:18:28;;;;;;;5.57;3.70;;;15.80;99.90;;;;;;4487493;26;20002;-68
2024/04/13 04:20:35;;;;;;;5.22;3.40;;;15.70;99.90;;;;;;4483199;26;20034;-68
2024/04/13 04:22:36;;;;;;;6.28;3.60;;;15.70;99.90;;;;;;4490291;26;20513;-68
2024/04/13 04:24:38;;;;;;;7.93;3.75;;;15.70;99.90;;;;;;4495359;26;20011;-68
2024/04/13 04:26:39;;;;;;;8.25;3.92;;;15.70;99.90;;;;;;4491706;26;20054;-68
2024/04/13 04:28:40;;;;;;;6.85;3.40;;;15.70;99.90;;;;;;4492287;26;20003;-68
2024/04/13 04:30:45;;;;;;;4.30;3.17;;;15.70;99.90;;;;;;4483785;26;20003;-68
2024/04/13 04:32:45;;;;;;;6.10;4.00;;;15.70;99.90;;;;;;4486734;26;20454;-68
2024/04/13 04:34:46;;;;;;;5.97;3.72;;;15.60;99.90;;;;;;4490989;26;20011;-67
2024/04/13 04:36:47;;;;;;;5.15;3.58;;;15.70;99.90;;;;;;4477573;26;20011;-67
2024/04/13 04:38:49;;;;;;;6.35;3.55;;;15.60;99.90;;;;;;4488202;26;20027;-61
2024/04/13 04:40:49;;;;;;;5.50;3.73;;;15.60;99.90;;;;;;4479496;26;20038;-60
2024/04/13 04:42:50;;;;;;;7.22;3.60;;;15.60;99.90;;;;;;4496815;26;20089;-60
2024/04/13 04:44:51;;;;;;;5.93;3.63;;;15.60;99.90;;;;;;4482098;26;20003;-60
2024/04/13 04:46:51;;;;;;;5.65;3.47;;;15.60;99.90;;;;;;4485585;26;21627;-60
2024/04/13 04:48:53;;;;;;;6.45;3.78;;;15.60;99.90;;;;;;4494044;26;20456;-60
2024/04/13 04:50:58;;;;;;;5.10;3.50;;;15.60;99.90;;;;;;4483716;26;20035;-60
2024/04/13 04:53:01;;;;;;;4.30;3.90;;;15.60;99.90;;;;;;4486874;26;19999;-60
2024/04/13 04:55:01;;;;;;;;;;;15.50;99.90;;;;;;4498402;26;20014;-60
2024/04/13 04:57:05;;;;;;;4.28;3.45;;;15.60;99.90;;;;;;4477360;26;20427;-60
2024/04/13 04:59:05;;;;;;;6.30;3.53;;;15.50;99.90;;;;;;4476660;26;20038;-60
2024/04/13 05:01:07;;;;;;;3.92;3.00;;;15.60;99.90;;;;;;4487564;26;20464;-60
2024/04/13 05:03:07;;;;;;;5.15;3.50;;;15.50;99.90;;;;;;4486951;26;20014;-60
2024/04/13 05:05:09;;;;;;;4.53;3.30;;;15.50;99.90;;;;;;4484233;26;20601;-61
2024/04/13 05:07:09;;;;;;;5.63;3.97;;;15.50;99.90;;;;;;4486058;26;20010;-60
2024/04/13 05:09:10;;;;;;;4.97;3.42;;;15.50;99.90;;;;;;4483445;26;20375;-60
2024/04/13 05:11:11;;;;;;;3.60;3.00;;;15.50;99.90;;;;;;4484251;26;20071;-59
2024/04/13 05:13:12;;;;;;;4.75;3.47;;;15.50;99.90;;;;;;4490599;26;20017;-60
2024/04/13 05:15:14;;;;;;;5.13;3.67;;;15.50;99.90;;;;;;4479298;26;20512;-60
2024/04/13 05:17:14;;;;;;;5.32;3.53;;;15.50;99.90;;;;;;4486174;26;20355;-63
2024/04/13 05:19:15;;;;;;;4.88;3.50;;;15.50;99.90;;;;;;4487110;26;20014;-61
2024/04/13 05:21:15;;;;;;;5.07;3.72;;;15.50;99.90;;;;;;4486254;26;20022;-62
2024/04/13 05:23:16;;;;;;;5.80;3.33;;;15.50;99.90;;;;;;4494237;26;20014;-60
2024/04/13 05:25:17;;;;;;;6.50;4.10;;;15.50;99.90;;;;;;4482067;26;20468;-61
2024/04/13 05:27:18;;;;;;;5.53;3.78;;;15.50;99.90;;;;;;4502849;26;20025;-60
2024/04/13 05:29:19;;;;;;;7.35;3.97;;;15.50;99.90;;;;;;4510054;26;19999;-60
2024/04/13 05:31:20;;;;;;;6.07;4.03;;;15.50;99.90;;;;;;4489029;26;20031;-60
2024/04/13 05:33:20;;;;;;;6.68;3.95;;;15.50;99.90;;;;;;4505654;26;20014;-60
2024/04/13 05:35:21;;;;;;;5.97;4.00;;;15.50;99.90;;;;;;4508065;26;20003;-60
2024/04/13 05:37:22;;;;;;;6.30;3.95;;;15.50;99.90;;;;;;4510118;26;20002;-59
2024/04/13 05:39:22;;;;;;;5.70;3.72;;;15.50;99.90;;;;;;4508174;26;20014;-60
2024/04/13 05:41:23;;;;;;;5.68;3.78;;;15.50;99.90;;;;;;4504332;26;20010;-59
2024/04/13 05:43:24;;;;;;;5.07;3.47;;;15.50;99.90;;;;;;4507220;26;20078;-59
2024/04/13 05:45:24;;;;;;;7.05;4.40;;;15.50;99.90;;;;;;4509584;26;20002;-60
2024/04/13 05:47:25;;;;;;;5.85;3.58;;;15.50;99.90;;;;;;4509764;26;20006;-60
2024/04/13 05:49:25;;;;;;;6.57;4.47;;;15.60;99.90;;;;;;4505297;26;20006;-60
2024/04/13 05:51:26;;;;;;;5.20;3.72;;;15.60;99.90;;;;;;4506381;26;20010;-60
2024/04/13 05:53:27;;;;;;;8.15;4.35;;;15.60;99.90;;;;;;4510271;26;20014;-60
2024/04/13 05:55:27;;;;;;;4.88;3.40;;;15.60;99.90;;;;;;4509619;26;20021;-60
2024/04/13 05:57:29;;;;;;;7.07;4.00;;;15.60;99.90;;;;;;4501973;26;20351;-59
2024/04/13 05:59:29;;;;;;;6.70;4.13;;;15.60;99.90;;;;;;4501924;26;20007;-60
2024/04/13 06:01:31;;;;;;;5.88;4.18;;;15.60;99.90;;;;;;4509653;26;20079;-60
2024/04/13 06:03:33;;;;;;;5.63;3.58;;;15.60;99.90;;;;;;4509730;26;20007;-59
2024/04/13 06:05:33;;;;;;;5.95;4.18;;;15.60;99.90;;;;;;4509301;26;20003;-59
2024/04/13 06:07:34;;;;;;;5.90;3.83;;;15.60;99.90;;;;;;4510122;26;20021;-60
2024/04/13 06:09:35;;;;;;;6.35;3.72;;;15.70;99.90;;;;;;4509859;26;20459;-59
2024/04/13 06:11:35;;;;;;;6.13;4.10;;;15.70;99.90;;;;;;4505135;26;20139;-59
2024/04/13 06:13:36;;;;;;;6.70;3.85;;;15.70;99.90;;;;;;4509738;26;20018;-60
2024/04/13 06:15:38;;;;;;;5.60;3.60;;;15.70;99.90;;;;;;4507009;26;20034;-59
2024/04/13 06:17:38;;;;;;;6.05;3.80;;;15.80;99.90;;;;;;4510003;26;20006;-59
2024/04/13 06:19:40;;;;;;;8.50;3.65;;;15.80;99.90;;;;;;4509537;26;20481;-59
2024/04/13 06:21:41;;;;;;;7.88;4.20;;;15.90;99.90;;;;;;4506947;26;20018;-59
2024/04/13 06:23:42;;;;;;;6.55;4.25;;;15.90;99.90;;;;;;4509788;26;20097;-59
2024/04/13 06:25:46;;;;;;;6.07;4.05;;;16.00;99.90;;;;;;4509023;26;20376;-60
2024/04/13 06:27:47;;;;;;;6.65;4.20;;;16.00;99.90;;;;;;4509541;26;20042;-61
2024/04/13 06:29:48;;;;;;;11.32;5.10;;;16.00;99.90;;;;;;4509595;26;20417;-60
2024/04/13 06:31:49;;;;;;;9.47;4.37;;;16.10;99.90;;;;;;4508893;26;20447;-60
2024/04/13 06:33:50;;;;;;;8.13;4.30;;;16.20;99.90;;;;;;4507847;26;20002;-63
2024/04/13 06:35:50;;;;;;;4.65;3.70;;;16.40;99.90;;;;;;4508732;26;20332;-60
2024/04/13 06:37:51;;;;;;;6.15;3.80;;;16.50;99.90;;;;;;4509177;26;20052;-60
2024/04/13 06:39:51;;;;;;;7.82;4.20;;;16.60;99.90;;;;;;4507329;26;20462;-60
2024/04/13 06:41:52;;;;;;;5.10;3.63;;;16.70;99.90;;;;;;4509061;26;20131;-60
2024/04/13 06:43:53;;;;;;;5.30;4.10;;;16.80;99.90;;;;;;4509432;26;20007;-60
2024/04/13 06:45:54;;;;;;;7.05;3.97;;;16.80;99.90;;;;;;4509024;26;20006;-60
2024/04/13 06:47:54;;;;;;;6.30;4.05;;;16.80;99.90;;;;;;4509492;26;20353;-59
2024/04/13 06:49:55;;;;;;;5.63;3.78;;;16.80;99.90;;;;;;4509073;26;20014;-59
2024/04/13 06:51:55;;;;;;;8.63;4.32;;;16.90;99.90;;;;;;4508356;26;20048;-60
2024/04/13 06:53:56;;;;;;;5.97;3.50;;;16.90;99.90;;;;;;4508721;26;20339;-59
2024/04/13 06:55:56;;;;;;;4.45;3.38;;;17.00;99.90;;;;;;4505473;26;20015;-59
2024/04/13 06:57:57;;;;;;;7.70;3.85;;;17.00;99.90;;;;;;4508820;26;20015;-59
2024/04/13 06:59:58;;;;;;;7.03;3.80;;;17.10;99.90;;;;;;4509511;26;20021;-71
2024/04/13 07:01:59;;;;;;;5.80;3.50;;;17.10;99.90;;;;;;4508642;26;20007;-72
2024/04/13 07:04:00;;;;;;;7.22;3.95;;;17.20;99.90;;;;;;4509305;26;20047;-71
2024/04/13 07:06:02;;;;;;;7.38;4.00;;;17.20;99.90;;;;;;4508301;26;20440;-71
2024/04/13 07:08:03;;;;;;;6.55;3.97;;;17.30;99.90;;;;;;4508182;26;20435;-71
2024/04/13 07:10:04;;;;;;;7.97;3.45;;;17.40;99.90;;;;;;4508594;26;20006;-73
2024/04/13 07:12:05;;;;;;;6.55;4.05;;;17.40;99.90;;;;;;4508221;26;20021;-71
2024/04/13 07:14:05;;;;;;;5.97;3.65;;;17.50;99.90;;;;;;4508937;26;20008;-71
2024/04/13 07:16:06;;;;;;;5.85;3.80;;;17.60;99.90;;;;;;4508369;26;20010;-70
2024/04/13 07:18:08;;;;;;;6.03;3.60;;;17.60;99.90;;;;;;4508679;26;21573;-69
2024/04/13 07:20:09;;;;;;;7.50;3.70;;;17.70;99.90;;;;;;4508476;26;20034;-73
2024/04/13 07:22:09;;;;;;;6.10;3.15;;;17.70;99.90;;;;;;4509414;26;20260;-72
2024/04/13 07:24:10;;;;;;;6.45;3.53;;;17.80;99.90;;;;;;4511842;26;20448;-72
2024/04/13 07:26:10;;;;;;;8.52;4.07;;;17.80;99.90;;;;;;4511030;26;20010;-72
2024/04/13 07:28:11;;;;;;;5.38;3.47;;;17.90;99.90;;;;;;4511973;26;20015;-72
2024/04/13 07:30:12;;;;;;;5.07;3.55;;;17.90;99.90;;;;;;4511267;26;20002;-71
2024/04/13 07:32:12;;;;;;;6.50;2.97;;;17.90;99.90;;;;;;4509156;26;20026;-72
2024/04/13 07:34:13;;;;;;;5.68;3.65;;;18.10;99.90;;;;;;4510203;26;20039;-72
2024/04/13 07:36:13;;;;;;;5.28;3.40;;;18.20;99.90;;;;;;4510832;26;20018;-72
2024/04/13 07:38:14;;;;;;;7.93;3.72;;;18.20;99.90;;;;;;4511635;26;20372;-71
2024/04/13 07:40:15;;;;;;;5.97;3.65;;;18.30;99.90;;;;;;4511151;26;20022;-72
2024/04/13 07:42:16;;;;;;;6.82;3.15;;;18.30;99.90;;;;;;4511619;26;20030;-71
2024/04/13 07:44:16;;;;;;;6.18;3.35;;;18.50;99.90;;;;;;4511479;26;20006;-71
2024/04/13 07:46:18;;;;;;;7.72;4.10;;;18.60;99.90;;;;;;4511005;26;20027;-72
2024/04/13 07:48:19;;;;;;;6.53;3.53;;;18.70;99.90;;;;;;4511261;26;20355;-71
2024/04/13 07:50:20;;;;;;;5.90;3.53;;;18.70;99.90;;;;;;4510560;26;20007;-70
2024/04/13 07:52:21;;;;;;;5.78;3.67;;;18.80;99.90;;;;;;4510768;26;20017;-69
2024/04/13 07:54:21;;;;;;;5.82;3.47;;;18.90;99.90;;;;;;4511489;26;19999;-71
2024/04/13 07:56:22;;;;;;;6.38;3.30;;;18.90;99.90;;;;;;4511153;26;20015;-71
2024/04/13 07:58:22;;;;;;;5.32;3.50;;;19.10;99.90;;;;;;4511555;26;20471;-71
2024/04/13 08:00:23;;;;;;;6.18;3.38;;;19.10;99.90;;;;;;4510083;26;20052;-71
2024/04/13 08:02:24;;;;;;;5.32;2.90;;;19.10;99.90;;;;;;4508874;26;20003;-71
2024/04/13 08:04:24;;;;;;;6.78;3.38;;;19.30;99.90;;;;;;4511419;26;20007;-71
2024/04/13 08:06:25;;;;;;;12.48;3.63;;;19.40;99.90;;;;;;4510548;26;20443;-71
2024/04/13 08:08:26;;;;;;;4.88;3.47;;;19.50;99.90;;;;;;4509343;26;20021;-65
2024/04/13 08:10:27;;;;;;;3.40;2.70;;;19.60;99.90;;;;;;4510426;26;20011;-64
2024/04/13 08:12:30;;;;;;;7.53;3.90;;;19.60;99.90;;;;;;4511236;26;20003;-65
2024/04/13 08:14:30;;;;;;;9.40;3.30;;;19.70;99.90;;;;;;4511522;26;20071;-64
2024/04/13 08:16:31;;;;;;;6.40;3.17;;;19.90;99.90;;;;;;4504567;26;20452;-65
2024/04/13 08:18:31;;;;;;;5.15;3.45;;;19.90;99.90;;;;;;4510829;26;20003;-65
2024/04/13 08:20:33;;;;;;;8.88;3.45;;;19.90;99.90;;;;;;4510299;26;20007;-64
2024/04/13 08:22:34;;;;;;;5.30;2.95;;;19.90;99.90;;;;;;4511185;26;20439;-65
2024/04/13 08:24:35;;;;;;;6.15;3.45;;;19.90;99.90;;;;;;4511114;26;20079;-65
2024/04/13 08:26:36;;;;;;;5.20;3.20;;;19.90;99.90;;;;;;4510327;26;20003;-65
2024/04/13 08:28:36;;;;;;;6.00;3.20;;;19.90;99.90;;;;;;4511195;26;20436;-65
2024/04/13 08:30:37;;;;;;;5.20;2.83;;;19.80;99.90;;;;;;4507965;26;20013;-65
2024/04/13 08:32:38;;;;;;;4.88;2.70;;;19.90;99.90;;;;;;4505563;26;20052;-65
2024/04/13 08:34:39;;;;;;;5.78;3.00;;;19.80;99.90;;;;;;4506940;26;20046;-65
2024/04/13 08:36:39;;;;;;;6.80;3.08;;;19.90;99.90;;;;;;4510167;26;20017;-65
2024/04/13 08:38:40;;;;;;;11.65;3.10;;;19.90;99.90;;;;;;4508912;26;20010;-64
2024/04/13 08:40:45;;;;;;;4.38;2.75;;;19.90;99.90;;;;;;4510143;26;20013;-65
2024/04/13 08:42:50;;;;;;;4.47;2.83;;;19.90;99.90;;;;;;4508721;26;20010;-65
2024/04/13 08:44:52;;;;;;;5.95;3.38;;;19.90;99.90;;;;;;4510501;26;20013;-65
2024/04/13 08:46:53;;;;;;;;;;;19.90;99.90;;;;;;4510523;26;20079;-65
2024/04/13 08:48:55;;;;;;;4.72;2.42;;;20.00;99.90;;;;;;4510624;26;19936;-64
2024/04/13 08:50:58;;;;;;;4.68;2.83;;;20.00;99.90;;;;;;4510140;26;20467;-64
2024/04/13 08:52:59;;;;;;;7.35;3.08;;;20.00;99.90;;;;;;4510278;26;20347;-65
2024/04/13 08:55:00;;;;;;;5.65;3.22;;;20.20;99.90;;;;;;4510262;26;20027;-65
2024/04/13 08:57:02;;;;;;;5.85;2.65;;;20.20;99.90;;;;;;4499221;26;20467;-65
2024/04/13 08:59:08;;;;;;;4.32;2.83;;;20.20;99.90;;;;;;4505359;26;20067;-64
2024/04/13 09:01:13;;;;;;;3.83;2.80;;;20.30;99.90;;;;;;4509873;26;20033;-65
2024/04/13 09:03:15;;;;;;;6.63;3.00;;;20.40;99.90;;;;;;4508256;26;20003;-64
2024/04/13 09:05:16;;;;;;;6.95;3.30;;;20.50;99.90;;;;;;4510133;26;20103;-65
2024/04/13 09:07:20;;;;;;;4.93;2.83;;;20.50;99.90;;;;;;4508109;26;20007;-65
2024/04/13 09:09:22;;;;;;;6.90;2.80;;;20.60;99.90;;;;;;4510119;26;20003;-64
2024/04/13 09:11:22;;;;;;;3.65;2.10;;;20.70;99.90;;;;;;4507345;26;20047;-64
2024/04/13 09:13:23;;;;;;;4.30;2.40;;;20.70;99.90;;;;;;4507554;26;20010;-66
2024/04/13 09:15:24;;;;;;;5.30;2.80;;;20.70;99.90;;;;;;4506552;26;20537;-65
2024/04/13 09:17:24;;;;;;;6.97;2.72;;;20.80;99.90;;;;;;4508545;26;20458;-66
2024/04/13 09:19:25;;;;;;;5.05;2.55;;;20.80;99.90;;;;;;4510719;26;20018;-59
2024/04/13 09:21:32;;;;;;;4.82;2.45;;;20.90;99.90;;;;;;4510300;26;20010;-59
2024/04/13 09:23:33;;;;;;;5.88;2.72;;;21.00;99.90;;;;;;4510217;26;20050;-59
2024/04/13 09:25:34;;;;;;;5.72;3.17;;;21.00;99.90;;;;;;4510206;26;20006;-60
2024/04/13 09:27:35;;;;;;;4.38;2.40;;;21.00;99.90;;;;;;4510263;26;20018;-59
2024/04/13 09:29:35;;;;;;;6.00;2.63;;;21.10;99.90;;;;;;4508031;26;20474;-59
2024/04/13 09:31:45;;;;;;;6.85;2.47;;;21.10;99.90;;;;;;4507366;26;20467;-59
2024/04/13 09:33:48;;;;;;;4.97;2.65;;;21.20;99.90;;;;;;4510025;26;20010;-59
2024/04/13 09:35:57;;;;;;;4.68;2.40;;;21.30;99.90;;;;;;4509860;26;20010;-59
2024/04/13 09:37:59;;;;;;;3.88;2.63;;;21.30;99.90;;;;;;4509655;26;20021;-59
2024/04/13 09:40:04;;;;;;;4.82;2.42;;;21.30;99.90;;;;;;4508099;26;20070;-59
2024/04/13 09:42:12;;;;;;;4.50;2.00;;;21.40;99.90;;;;;;4509649;26;20007;-59
2024/04/13 09:44:32;;;;;;;5.35;2.30;;;21.50;99.90;;;;;;4509957;26;20498;-59
2024/04/13 09:46:33;;;;;;;6.53;2.50;;;21.50;99.90;;;;;;4508966;26;20347;-59
2024/04/13 09:48:34;;;;;;;6.20;2.70;;;21.60;99.90;;;;;;4509277;26;20003;-59
2024/04/13 09:50:35;;;;;;;5.03;2.20;;;21.60;99.90;;;;;;4509443;26;20600;-59
2024/04/13 09:52:35;;;;;;;3.55;2.15;;;21.60;99.90;;;;;;4509854;26;20003;-59
2024/04/13 09:54:36;;;;;;;3.90;2.40;;;21.70;99.90;;;;;;4509647;26;20011;-59
2024/04/13 09:56:38;;;;;;;6.03;2.40;;;21.70;99.90;;;;;;4507220;26;19999;-59
2024/04/13 09:58:39;;;;;;;4.72;1.92;;;21.70;99.90;;;;;;4509677;26;20484;-59
2024/04/13 10:00:41;;;;;;;4.72;2.33;;;21.80;99.90;;;;;;4509388;26;20130;-59
2024/04/13 10:02:41;;;;;;;5.13;2.60;;;21.80;99.90;;;;;;4510227;26;20352;-59
2024/04/13 10:04:42;;;;;;;5.13;2.03;;;21.90;99.90;;;;;;4508667;26;20079;-59
2024/04/13 10:06:46;;;;;;;4.97;2.80;;;22.00;99.90;;;;;;4509475;26;20007;-59
2024/04/13 10:08:47;;;;;;;6.13;2.67;;;22.10;99.90;;;;;;4509750;26;20003;-59
2024/04/13 10:10:51;;;;;;;5.22;2.78;;;22.10;99.90;;;;;;4506993;26;20039;-59
2024/04/13 10:12:54;;;;;;;4.00;1.92;;;22.20;99.90;;;;;;4509709;26;20018;-59
2024/04/13 10:15:15;;;;;;;5.10;2.63;;;22.30;99.90;;;;;;4468636;25;20361;-59
2024/04/13 10:17:16;;;;;;;;;;;22.40;99.90;;;;;;4455633;26;20084;-60
2024/04/13 10:19:20;;;;;;;6.70;2.50;;;22.40;99.90;;;;;;4459753;26;20422;-59
2024/04/13 10:21:21;;;;;;;5.30;2.42;;;22.40;99.90;;;;;;4486841;26;20012;-59
2024/04/13 10:23:22;;;;;;;7.75;2.42;;;22.50;99.90;;;;;;4427586;26;20508;-59
2024/04/13 10:25:30;;;;;;;5.10;2.38;;;22.60;99.90;;;;;;4483586;26;20018;-59
2024/04/13 10:27:33;;;;;;;3.30;2.05;;;22.50;99.90;;;;;;4469211;26;20012;-64
2024/04/13 10:29:40;;;;;;;4.20;2.10;;;22.50;99.90;;;;;;4444733;26;20018;-60
2024/04/13 10:31:41;;;;;;;4.85;2.33;;;22.60;99.90;;;;;;4457277;26;20008;-60
2024/04/13 10:33:55;;;;;;;4.40;2.15;;;22.70;99.90;;;;;;4460233;26;20531;-60